sensor_id;sensor_type;location;lat;lon;timestamp;temperature;humidity
75688;HTU21D;64300;45.034;38.910;2022-12-18T00:00:48;9.75;99.90
75688;HTU21D;64300;45.034;38.910;2022-12-18T00:03:14;9.81;99.83
75688;HTU21D;64300;45.034;38.910;2022-12-18T00:05:48;9.89;99.90
75688;HTU21D;64300;45.034;38.910;2022-12-18T00:08:14;9.93;99.65
75688;HTU21D;64300;45.034;38.910;2022-12-18T00:10:40;10.00;99.46
75688;HTU21D;64300;45.034;38.910;2022-12-18T00:13:06;10.06;99.21
75688;HTU21D;64300;45.034;38.910;2022-12-18T00:15:34;10.11;98.94
75688;HTU21D;64300;45.034;38.910;2022-12-18T00:18:01;10.15;98.77
75688;HTU21D;64300;45.034;38.910;2022-12-18T00:20:26;10.19;98.55
75688;HTU21D;64300;45.034;38.910;2022-12-18T00:22:54;10.21;98.29
75688;HTU21D;64300;45.034;38.910;2022-12-18T00:25:20;10.24;98.26
75688;HTU21D;64300;45.034;38.910;2022-12-18T00:27:46;10.25;98.19
75688;HTU21D;64300;45.034;38.910;2022-12-18T00:30:13;10.27;98.02
75688;HTU21D;64300;45.034;38.910;2022-12-18T00:32:39;10.27;97.86
75688;HTU21D;64300;45.034;38.910;2022-12-18T00:35:06;10.28;97.74
75688;HTU21D;64300;45.034;38.910;2022-12-18T00:37:35;10.28;97.61
75688;HTU21D;64300;45.034;38.910;2022-12-18T00:40:02;10.24;97.48
75688;HTU21D;64300;45.034;38.910;2022-12-18T00:42:28;10.21;97.45
75688;HTU21D;64300;45.034;38.910;2022-12-18T00:45:12;10.18;97.47
75688;HTU21D;64300;45.034;38.910;2022-12-18T00:47:38;10.14;97.52
75688;HTU21D;64300;45.034;38.910;2022-12-18T00:50:04;10.13;97.58
75688;HTU21D;64300;45.034;38.910;2022-12-18T00:52:30;10.11;97.59
75688;HTU21D;64300;45.034;38.910;2022-12-18T00:54:56;10.09;97.63
75688;HTU21D;64300;45.034;38.910;2022-12-18T00:57:22;10.08;97.72
75688;HTU21D;64300;45.034;38.910;2022-12-18T00:59:48;10.08;97.71
75688;HTU21D;64300;45.034;38.910;2022-12-18T01:02:14;10.07;97.84
75688;HTU21D;64300;45.034;38.910;2022-12-18T01:04:40;10.08;97.84
75688;HTU21D;64300;45.034;38.910;2022-12-18T01:07:05;10.10;98.06
75688;HTU21D;64300;45.034;38.910;2022-12-18T01:09:33;10.13;98.15
75688;HTU21D;64300;45.034;38.910;2022-12-18T01:12:00;10.16;98.16
75688;HTU21D;64300;45.034;38.910;2022-12-18T01:14:26;10.23;98.06
75688;HTU21D;64300;45.034;38.910;2022-12-18T01:16:52;10.30;97.83
75688;HTU21D;64300;45.034;38.910;2022-12-18T01:19:18;10.37;97.58
75688;HTU21D;64300;45.034;38.910;2022-12-18T01:21:45;10.40;97.20
75688;HTU21D;64300;45.034;38.910;2022-12-18T01:24:12;10.41;97.09
75688;HTU21D;64300;45.034;38.910;2022-12-18T01:26:38;10.42;96.97
75688;HTU21D;64300;45.034;38.910;2022-12-18T01:29:04;10.40;96.88
75688;HTU21D;64300;45.034;38.910;2022-12-18T01:31:32;10.40;96.91
75688;HTU21D;64300;45.034;38.910;2022-12-18T01:34:01;10.41;96.91
75688;HTU21D;64300;45.034;38.910;2022-12-18T01:36:30;10.40;96.81
75688;HTU21D;64300;45.034;38.910;2022-12-18T01:38:59;10.38;96.84
75688;HTU21D;64300;45.034;38.910;2022-12-18T01:41:27;10.37;96.84
75688;HTU21D;64300;45.034;38.910;2022-12-18T01:49:59;10.27;97.11
75688;HTU21D;64300;45.034;38.910;2022-12-18T01:52:28;10.26;97.12
75688;HTU21D;64300;45.034;38.910;2022-12-18T01:54:55;10.26;97.13
75688;HTU21D;64300;45.034;38.910;2022-12-18T01:57:23;10.22;97.22
75688;HTU21D;64300;45.034;38.910;2022-12-18T01:59:52;10.23;97.27
75688;HTU21D;64300;45.034;38.910;2022-12-18T02:02:20;10.24;97.29
75688;HTU21D;64300;45.034;38.910;2022-12-18T02:04:48;10.25;97.34
75688;HTU21D;64300;45.034;38.910;2022-12-18T02:10:27;10.33;97.40
75688;HTU21D;64300;45.034;38.910;2022-12-18T02:17:57;10.39;97.38
75688;HTU21D;64300;45.034;38.910;2022-12-18T02:20:34;10.44;97.33
75688;HTU21D;64300;45.034;38.910;2022-12-18T02:26:24;10.54;97.43
75688;HTU21D;64300;45.034;38.910;2022-12-18T02:29:06;10.62;97.32
75688;HTU21D;64300;45.034;38.910;2022-12-18T02:31:41;10.67;97.13
75688;HTU21D;64300;45.034;38.910;2022-12-18T02:34:09;10.69;97.00
75688;HTU21D;64300;45.034;38.910;2022-12-18T02:36:40;10.72;96.91
75688;HTU21D;64300;45.034;38.910;2022-12-18T02:39:09;10.75;96.80
75688;HTU21D;64300;45.034;38.910;2022-12-18T02:41:39;10.79;96.69
75688;HTU21D;64300;45.034;38.910;2022-12-18T02:44:10;10.80;96.55
75688;HTU21D;64300;45.034;38.910;2022-12-18T02:46:45;10.81;96.52
75688;HTU21D;64300;45.034;38.910;2022-12-18T02:52:07;10.84;96.37
75688;HTU21D;64300;45.034;38.910;2022-12-18T03:00:40;10.95;95.92
75688;HTU21D;64300;45.034;38.910;2022-12-18T03:08:28;10.97;95.70
75688;HTU21D;64300;45.034;38.910;2022-12-18T03:11:06;10.98;96.19
75688;HTU21D;64300;45.034;38.910;2022-12-18T03:13:54;11.01;96.00
75688;HTU21D;64300;45.034;38.910;2022-12-18T03:16:28;11.08;96.17
75688;HTU21D;64300;45.034;38.910;2022-12-18T03:19:01;11.13;95.83
75688;HTU21D;64300;45.034;38.910;2022-12-18T03:21:42;11.20;95.59
75688;HTU21D;64300;45.034;38.910;2022-12-18T03:24:09;11.23;94.70
75688;HTU21D;64300;45.034;38.910;2022-12-18T03:26:41;11.19;95.50
75688;HTU21D;64300;45.034;38.910;2022-12-18T03:32:25;11.17;94.90
75688;HTU21D;64300;45.034;38.910;2022-12-18T03:34:55;11.15;95.21
75688;HTU21D;64300;45.034;38.910;2022-12-18T03:37:28;11.12;95.05
75688;HTU21D;64300;45.034;38.910;2022-12-18T03:39:54;11.10;94.98
75688;HTU21D;64300;45.034;38.910;2022-12-18T03:48:18;11.03;94.81
75688;HTU21D;64300;45.034;38.910;2022-12-18T03:50:57;10.99;94.98
75688;HTU21D;64300;45.034;38.910;2022-12-18T03:53:51;10.97;95.20
75688;HTU21D;64300;45.034;38.910;2022-12-18T03:56:25;11.01;95.32
75688;HTU21D;64300;45.034;38.910;2022-12-18T03:58:53;11.04;95.40
75688;HTU21D;64300;45.034;38.910;2022-12-18T04:01:29;11.08;95.18
75688;HTU21D;64300;45.034;38.910;2022-12-18T04:03:59;11.14;95.08
75688;HTU21D;64300;45.034;38.910;2022-12-18T04:06:28;11.14;94.84
75688;HTU21D;64300;45.034;38.910;2022-12-18T04:08:57;11.16;94.69
75688;HTU21D;64300;45.034;38.910;2022-12-18T04:11:25;11.14;94.59
75688;HTU21D;64300;45.034;38.910;2022-12-18T04:13:56;11.14;94.45
75688;HTU21D;64300;45.034;38.910;2022-12-18T04:16:24;11.11;94.43
75688;HTU21D;64300;45.034;38.910;2022-12-18T04:18:53;11.08;94.41
75688;HTU21D;64300;45.034;38.910;2022-12-18T04:21:20;11.08;94.40
75688;HTU21D;64300;45.034;38.910;2022-12-18T04:23:48;11.07;94.30
75688;HTU21D;64300;45.034;38.910;2022-12-18T04:26:18;11.05;94.20
75688;HTU21D;64300;45.034;38.910;2022-12-18T04:29:00;11.01;94.20
75688;HTU21D;64300;45.034;38.910;2022-12-18T04:31:27;11.01;94.20
75688;HTU21D;64300;45.034;38.910;2022-12-18T04:33:54;11.00;94.11
75688;HTU21D;64300;45.034;38.910;2022-12-18T04:36:20;10.98;94.01
75688;HTU21D;64300;45.034;38.910;2022-12-18T04:38:46;10.97;93.97
75688;HTU21D;64300;45.034;38.910;2022-12-18T04:41:15;10.93;93.88
75688;HTU21D;64300;45.034;38.910;2022-12-18T04:43:45;10.89;93.85
75688;HTU21D;64300;45.034;38.910;2022-12-18T04:46:11;10.86;93.78
75688;HTU21D;64300;45.034;38.910;2022-12-18T04:48:37;10.84;93.75
75688;HTU21D;64300;45.034;38.910;2022-12-18T04:51:04;10.81;93.72
75688;HTU21D;64300;45.034;38.910;2022-12-18T04:53:31;10.80;93.80
75688;HTU21D;64300;45.034;38.910;2022-12-18T04:56:23;10.80;93.72
75688;HTU21D;64300;45.034;38.910;2022-12-18T04:58:49;10.74;93.88
75688;HTU21D;64300;45.034;38.910;2022-12-18T05:01:16;10.72;93.85
75688;HTU21D;64300;45.034;38.910;2022-12-18T05:03:45;10.72;93.98
75688;HTU21D;64300;45.034;38.910;2022-12-18T05:06:11;10.73;93.96
75688;HTU21D;64300;45.034;38.910;2022-12-18T05:08:37;10.73;94.02
75688;HTU21D;64300;45.034;38.910;2022-12-18T05:11:04;10.75;93.98
75688;HTU21D;64300;45.034;38.910;2022-12-18T05:13:31;10.79;93.91
75688;HTU21D;64300;45.034;38.910;2022-12-18T05:16:00;10.79;93.88
75688;HTU21D;64300;45.034;38.910;2022-12-18T05:18:26;10.79;93.78
75688;HTU21D;64300;45.034;38.910;2022-12-18T05:20:53;10.81;93.68
75688;HTU21D;64300;45.034;38.910;2022-12-18T05:23:21;10.80;93.62
75688;HTU21D;64300;45.034;38.910;2022-12-18T05:25:59;10.80;93.45
75688;HTU21D;64300;45.034;38.910;2022-12-18T05:28:27;10.75;93.40
75688;HTU21D;64300;45.034;38.910;2022-12-18T05:30:56;10.78;93.44
75688;HTU21D;64300;45.034;38.910;2022-12-18T05:33:24;10.78;93.52
75688;HTU21D;64300;45.034;38.910;2022-12-18T05:35:55;10.81;93.56
75688;HTU21D;64300;45.034;38.910;2022-12-18T05:38:22;10.84;93.62
75688;HTU21D;64300;45.034;38.910;2022-12-18T05:40:50;10.89;93.74
75688;HTU21D;64300;45.034;38.910;2022-12-18T05:43:17;10.96;93.69
75688;HTU21D;64300;45.034;38.910;2022-12-18T05:45:43;11.01;93.64
75688;HTU21D;64300;45.034;38.910;2022-12-18T05:48:12;11.09;93.49
75688;HTU21D;64300;45.034;38.910;2022-12-18T05:50:40;11.15;93.37
75688;HTU21D;64300;45.034;38.910;2022-12-18T05:53:07;11.23;93.21
75688;HTU21D;64300;45.034;38.910;2022-12-18T05:55:34;11.30;93.11
75688;HTU21D;64300;45.034;38.910;2022-12-18T05:58:01;11.38;92.98
75688;HTU21D;64300;45.034;38.910;2022-12-18T06:00:27;11.46;92.85
75688;HTU21D;64300;45.034;38.910;2022-12-18T06:02:53;11.55;92.67
75688;HTU21D;64300;45.034;38.910;2022-12-18T06:05:19;11.69;92.61
75688;HTU21D;64300;45.034;38.910;2022-12-18T06:07:46;11.82;92.47
75688;HTU21D;64300;45.034;38.910;2022-12-18T06:10:13;11.94;92.63
75688;HTU21D;64300;45.034;38.910;2022-12-18T06:12:39;12.11;92.54
75688;HTU21D;64300;45.034;38.910;2022-12-18T06:15:05;12.30;92.21
75688;HTU21D;64300;45.034;38.910;2022-12-18T06:17:32;12.47;91.76
75688;HTU21D;64300;45.034;38.910;2022-12-18T06:19:59;12.64;91.32
75688;HTU21D;64300;45.034;38.910;2022-12-18T06:22:25;12.82;90.73
75688;HTU21D;64300;45.034;38.910;2022-12-18T06:24:51;12.96;90.32
75688;HTU21D;64300;45.034;38.910;2022-12-18T06:27:17;13.10;89.70
75688;HTU21D;64300;45.034;38.910;2022-12-18T06:29:43;13.25;89.16
75688;HTU21D;64300;45.034;38.910;2022-12-18T06:32:09;13.36;88.75
75688;HTU21D;64300;45.034;38.910;2022-12-18T06:34:40;13.47;88.23
75688;HTU21D;64300;45.034;38.910;2022-12-18T06:37:07;13.54;87.68
75688;HTU21D;64300;45.034;38.910;2022-12-18T06:39:33;13.59;87.22
75688;HTU21D;64300;45.034;38.910;2022-12-18T06:41:59;13.64;86.90
75688;HTU21D;64300;45.034;38.910;2022-12-18T06:44:25;13.67;86.65
75688;HTU21D;64300;45.034;38.910;2022-12-18T06:46:51;13.71;86.35
75688;HTU21D;64300;45.034;38.910;2022-12-18T06:49:18;13.76;86.06
75688;HTU21D;64300;45.034;38.910;2022-12-18T06:51:44;13.80;85.72
75688;HTU21D;64300;45.034;38.910;2022-12-18T06:54:09;13.81;85.40
75688;HTU21D;64300;45.034;38.910;2022-12-18T06:56:35;13.82;85.20
75688;HTU21D;64300;45.034;38.910;2022-12-18T06:59:02;13.81;85.00
75688;HTU21D;64300;45.034;38.910;2022-12-18T07:01:28;13.81;84.89
75688;HTU21D;64300;45.034;38.910;2022-12-18T07:03:56;13.80;84.49
75688;HTU21D;64300;45.034;38.910;2022-12-18T07:06:24;13.81;84.50
75688;HTU21D;64300;45.034;38.910;2022-12-18T07:08:51;13.82;84.47
75688;HTU21D;64300;45.034;38.910;2022-12-18T07:11:18;13.86;84.32
75688;HTU21D;64300;45.034;38.910;2022-12-18T07:13:45;13.92;83.98
75688;HTU21D;64300;45.034;38.910;2022-12-18T07:16:14;13.98;83.66
75688;HTU21D;64300;45.034;38.910;2022-12-18T07:18:41;14.05;83.44
75688;HTU21D;64300;45.034;38.910;2022-12-18T07:21:09;14.12;83.10
75688;HTU21D;64300;45.034;38.910;2022-12-18T07:23:36;14.17;82.94
75688;HTU21D;64300;45.034;38.910;2022-12-18T07:26:07;14.21;82.75
75688;HTU21D;64300;45.034;38.910;2022-12-18T07:28:35;14.23;82.41
75688;HTU21D;64300;45.034;38.910;2022-12-18T07:31:27;14.27;82.29
75688;HTU21D;64300;45.034;38.910;2022-12-18T07:33:52;14.30;82.34
75688;HTU21D;64300;45.034;38.910;2022-12-18T07:36:18;14.36;82.11
75688;HTU21D;64300;45.034;38.910;2022-12-18T07:38:49;14.42;81.95
75688;HTU21D;64300;45.034;38.910;2022-12-18T07:41:19;14.49;81.61
75688;HTU21D;64300;45.034;38.910;2022-12-18T07:43:45;14.57;81.31
75688;HTU21D;64300;45.034;38.910;2022-12-18T07:46:12;14.69;80.91
75688;HTU21D;64300;45.034;38.910;2022-12-18T07:48:45;14.80;80.45
75688;HTU21D;64300;45.034;38.910;2022-12-18T07:51:12;14.93;80.14
75688;HTU21D;64300;45.034;38.910;2022-12-18T07:53:39;15.07;79.87
75688;HTU21D;64300;45.034;38.910;2022-12-18T07:56:09;15.21;79.28
75688;HTU21D;64300;45.034;38.910;2022-12-18T07:58:36;15.34;79.04
75688;HTU21D;64300;45.034;38.910;2022-12-18T08:01:07;15.47;78.52
75688;HTU21D;64300;45.034;38.910;2022-12-18T08:03:33;15.59;78.15
75688;HTU21D;64300;45.034;38.910;2022-12-18T08:06:04;15.69;77.89
75688;HTU21D;64300;45.034;38.910;2022-12-18T08:08:30;15.77;77.95
75688;HTU21D;64300;45.034;38.910;2022-12-18T08:10:57;15.87;77.56
75688;HTU21D;64300;45.034;38.910;2022-12-18T08:13:23;15.95;77.12
75688;HTU21D;64300;45.034;38.910;2022-12-18T08:15:57;16.03;76.94
75688;HTU21D;64300;45.034;38.910;2022-12-18T08:18:24;16.12;77.16
75688;HTU21D;64300;45.034;38.910;2022-12-18T08:20:49;16.20;76.44
75688;HTU21D;64300;45.034;38.910;2022-12-18T08:23:17;16.30;76.35
75688;HTU21D;64300;45.034;38.910;2022-12-18T08:25:42;16.43;76.17
75688;HTU21D;64300;45.034;38.910;2022-12-18T08:28:09;16.52;75.98
75688;HTU21D;64300;45.034;38.910;2022-12-18T08:30:36;16.65;74.82
75688;HTU21D;64300;45.034;38.910;2022-12-18T08:33:03;16.77;74.47
75688;HTU21D;64300;45.034;38.910;2022-12-18T08:35:29;16.91;74.12
75688;HTU21D;64300;45.034;38.910;2022-12-18T08:37:55;17.05;73.73
75688;HTU21D;64300;45.034;38.910;2022-12-18T08:40:21;17.16;72.96
75688;HTU21D;64300;45.034;38.910;2022-12-18T08:42:47;17.26;72.41
75688;HTU21D;64300;45.034;38.910;2022-12-18T08:45:31;17.36;72.16
75688;HTU21D;64300;45.034;38.910;2022-12-18T08:47:57;17.43;71.77
75688;HTU21D;64300;45.034;38.910;2022-12-18T08:50:23;17.52;71.43
75688;HTU21D;64300;45.034;38.910;2022-12-18T08:52:49;17.60;71.19
75688;HTU21D;64300;45.034;38.910;2022-12-18T08:55:15;17.70;71.08
75688;HTU21D;64300;45.034;38.910;2022-12-18T08:57:41;17.83;70.78
75688;HTU21D;64300;45.034;38.910;2022-12-18T09:00:08;17.96;70.41
75688;HTU21D;64300;45.034;38.910;2022-12-18T09:02:34;18.11;70.25
75688;HTU21D;64300;45.034;38.910;2022-12-18T09:05:00;18.26;69.77
75688;HTU21D;64300;45.034;38.910;2022-12-18T09:07:26;18.38;69.39
75688;HTU21D;64300;45.034;38.910;2022-12-18T09:09:52;18.49;68.81
75688;HTU21D;64300;45.034;38.910;2022-12-18T09:12:18;18.62;68.78
75688;HTU21D;64300;45.034;38.910;2022-12-18T09:14:44;18.72;68.26
75688;HTU21D;64300;45.034;38.910;2022-12-18T09:17:09;18.83;67.49
75688;HTU21D;64300;45.034;38.910;2022-12-18T09:19:35;18.89;67.18
75688;HTU21D;64300;45.034;38.910;2022-12-18T09:22:01;18.94;66.89
75688;HTU21D;64300;45.034;38.910;2022-12-18T09:24:28;18.96;66.86
75688;HTU21D;64300;45.034;38.910;2022-12-18T09:26:54;18.99;66.87
75688;HTU21D;64300;45.034;38.910;2022-12-18T09:29:21;19.02;66.38
75688;HTU21D;64300;45.034;38.910;2022-12-18T09:31:47;19.03;66.33
75688;HTU21D;64300;45.034;38.910;2022-12-18T09:34:15;19.02;66.16
75688;HTU21D;64300;45.034;38.910;2022-12-18T09:36:42;19.01;66.28
75688;HTU21D;64300;45.034;38.910;2022-12-18T09:39:08;19.01;66.29
75688;HTU21D;64300;45.034;38.910;2022-12-18T09:41:51;19.02;66.62
75688;HTU21D;64300;45.034;38.910;2022-12-18T09:44:32;19.01;66.62
75688;HTU21D;64300;45.034;38.910;2022-12-18T09:49:42;18.87;66.84
75688;HTU21D;64300;45.034;38.910;2022-12-18T09:54:45;18.68;67.17
75688;HTU21D;64300;45.034;38.910;2022-12-18T09:57:18;18.65;67.23
75688;HTU21D;64300;45.034;38.910;2022-12-18T09:59:58;18.65;66.98
75688;HTU21D;64300;45.034;38.910;2022-12-18T10:02:26;18.65;66.83
75688;HTU21D;64300;45.034;38.910;2022-12-18T10:05:00;18.66;66.84
75688;HTU21D;64300;45.034;38.910;2022-12-18T10:10:45;18.59;66.54
75688;HTU21D;64300;45.034;38.910;2022-12-18T10:13:35;18.52;66.24
75688;HTU21D;64300;45.034;38.910;2022-12-18T10:16:22;18.46;66.02
75688;HTU21D;64300;45.034;38.910;2022-12-18T10:19:42;18.35;65.72
75688;HTU21D;64300;45.034;38.910;2022-12-18T10:22:18;18.22;66.67
75688;HTU21D;64300;45.034;38.910;2022-12-18T10:25:01;18.12;66.85
75688;HTU21D;64300;45.034;38.910;2022-12-18T10:27:30;18.00;67.07
75688;HTU21D;64300;45.034;38.910;2022-12-18T10:29:57;17.92;67.16
75688;HTU21D;64300;45.034;38.910;2022-12-18T10:32:28;17.83;67.25
75688;HTU21D;64300;45.034;38.910;2022-12-18T10:34:57;17.77;67.46
75688;HTU21D;64300;45.034;38.910;2022-12-18T10:37:26;17.68;67.55
75688;HTU21D;64300;45.034;38.910;2022-12-18T10:40:13;17.55;66.80
75688;HTU21D;64300;45.034;38.910;2022-12-18T10:42:41;17.01;74.00
75688;HTU21D;64300;45.034;38.910;2022-12-18T10:45:15;17.02;73.79
75688;HTU21D;64300;45.034;38.910;2022-12-18T10:47:46;17.02;72.04
75688;HTU21D;64300;45.034;38.910;2022-12-18T10:50:28;16.94;72.03
75688;HTU21D;64300;45.034;38.910;2022-12-18T10:52:58;16.65;76.66
75688;HTU21D;64300;45.034;38.910;2022-12-18T10:55:31;16.60;76.16
75688;HTU21D;64300;45.034;38.910;2022-12-18T10:58:25;16.42;78.25
75688;HTU21D;64300;45.034;38.910;2022-12-18T11:03:31;16.24;76.74
75688;HTU21D;64300;45.034;38.910;2022-12-18T11:06:03;16.16;77.38
75688;HTU21D;64300;45.034;38.910;2022-12-18T11:08:29;16.05;79.62
75688;HTU21D;64300;45.034;38.910;2022-12-18T11:10:55;16.00;78.02
75688;HTU21D;64300;45.034;38.910;2022-12-18T11:13:23;15.93;78.27
75688;HTU21D;64300;45.034;38.910;2022-12-18T11:15:50;15.74;82.47
75688;HTU21D;64300;45.034;38.910;2022-12-18T11:18:29;15.61;83.58
75688;HTU21D;64300;45.034;38.910;2022-12-18T11:21:06;15.49;82.22
75688;HTU21D;64300;45.034;38.910;2022-12-18T11:23:34;15.44;82.14
75688;HTU21D;64300;45.034;38.910;2022-12-18T11:26:02;15.32;83.50
75688;HTU21D;64300;45.034;38.910;2022-12-18T11:28:41;15.23;84.22
75688;HTU21D;64300;45.034;38.910;2022-12-18T11:31:24;15.17;84.58
75688;HTU21D;64300;45.034;38.910;2022-12-18T11:34:20;15.03;86.43
75688;HTU21D;64300;45.034;38.910;2022-12-18T11:36:49;14.87;91.54
75688;HTU21D;64300;45.034;38.910;2022-12-18T11:39:52;14.83;92.16
75688;HTU21D;64300;45.034;38.910;2022-12-18T11:42:27;14.81;88.42
75688;HTU21D;64300;45.034;38.910;2022-12-18T11:45:08;14.77;89.34
75688;HTU21D;64300;45.034;38.910;2022-12-18T11:50:56;14.72;92.32
75688;HTU21D;64300;45.034;38.910;2022-12-18T11:53:25;14.67;90.43
75688;HTU21D;64300;45.034;38.910;2022-12-18T11:58:53;14.60;96.10
75688;HTU21D;64300;45.034;38.910;2022-12-18T12:04:45;14.55;95.80
75688;HTU21D;64300;45.034;38.910;2022-12-18T12:07:24;14.53;100.70
75688;HTU21D;64300;45.034;38.910;2022-12-18T12:13:04;14.34;106.81
75688;HTU21D;64300;45.034;38.910;2022-12-18T12:20:58;14.21;103.17
75688;HTU21D;64300;45.034;38.910;2022-12-18T12:29:01;14.11;106.98
75688;HTU21D;64300;45.034;38.910;2022-12-18T12:31:56;14.05;106.77
75688;HTU21D;64300;45.034;38.910;2022-12-18T12:37:40;13.97;103.88
75688;HTU21D;64300;45.034;38.910;2022-12-18T12:40:26;13.85;105.20
75688;HTU21D;64300;45.034;38.910;2022-12-18T12:42:57;13.75;109.44
75688;HTU21D;64300;45.034;38.910;2022-12-18T12:45:49;13.68;106.98
75688;HTU21D;64300;45.034;38.910;2022-12-18T12:49:13;13.73;106.49
75688;HTU21D;64300;45.034;38.910;2022-12-18T12:53:57;13.41;107.43
75688;HTU21D;64300;45.034;38.910;2022-12-18T12:56:42;13.29;108.48
75688;HTU21D;64300;45.034;38.910;2022-12-18T12:59:15;13.19;106.95
75688;HTU21D;64300;45.034;38.910;2022-12-18T13:02:23;13.16;105.55
75688;HTU21D;64300;45.034;38.910;2022-12-18T13:07:47;13.03;105.21
75688;HTU21D;64300;45.034;38.910;2022-12-18T13:13:02;12.93;106.41
75688;HTU21D;64300;45.034;38.910;2022-12-18T13:18:28;12.84;106.75
75688;HTU21D;64300;45.034;38.910;2022-12-18T13:25:50;12.55;105.18
75688;HTU21D;64300;45.034;38.910;2022-12-18T13:31:02;12.37;105.06
75688;HTU21D;64300;45.034;38.910;2022-12-18T13:36:14;11.84;109.30
75688;HTU21D;64300;45.034;38.910;2022-12-18T13:38:42;11.86;106.76
75688;HTU21D;64300;45.034;38.910;2022-12-18T13:43:45;11.29;113.93
75688;HTU21D;64300;45.034;38.910;2022-12-18T13:46:22;11.31;110.04
75688;HTU21D;64300;45.034;38.910;2022-12-18T13:51:20;11.08;112.46
75688;HTU21D;64300;45.034;38.910;2022-12-18T13:53:52;11.08;111.56
75688;HTU21D;64300;45.034;38.910;2022-12-18T13:56:30;11.04;110.12
75688;HTU21D;64300;45.034;38.910;2022-12-18T14:01:56;10.98;108.66
75688;HTU21D;64300;45.034;38.910;2022-12-18T14:04:33;10.82;110.29
75688;HTU21D;64300;45.034;38.910;2022-12-18T14:07:10;10.63;110.69
75688;HTU21D;64300;45.034;38.910;2022-12-18T14:09:57;10.54;110.81
75688;HTU21D;64300;45.034;38.910;2022-12-18T14:12:28;10.37;114.32
75688;HTU21D;64300;45.034;38.910;2022-12-18T14:17:45;10.13;112.68
75688;HTU21D;64300;45.034;38.910;2022-12-18T14:20:15;9.93;116.28
75688;HTU21D;64300;45.034;38.910;2022-12-18T14:22:44;9.95;113.03
75688;HTU21D;64300;45.034;38.910;2022-12-18T14:27:47;9.65;118.99
75688;HTU21D;64300;45.034;38.910;2022-12-18T14:33:10;9.47;118.99
75688;HTU21D;64300;45.034;38.910;2022-12-18T14:35:57;9.24;118.99
75688;HTU21D;64300;45.034;38.910;2022-12-18T14:38:29;9.34;118.45
75688;HTU21D;64300;45.034;38.910;2022-12-18T14:41:04;9.08;118.99
75688;HTU21D;64300;45.034;38.910;2022-12-18T14:43:36;9.07;118.99
75688;HTU21D;64300;45.034;38.910;2022-12-18T14:46:26;8.98;118.99
75688;HTU21D;64300;45.034;38.910;2022-12-18T14:48:54;9.05;118.99
75688;HTU21D;64300;45.034;38.910;2022-12-18T14:51:27;9.05;118.99
75688;HTU21D;64300;45.034;38.910;2022-12-18T14:53:57;8.98;118.99
75688;HTU21D;64300;45.034;38.910;2022-12-18T14:56:30;8.87;118.99
75688;HTU21D;64300;45.034;38.910;2022-12-18T14:59:04;8.73;118.99
75688;HTU21D;64300;45.034;38.910;2022-12-18T15:01:44;8.75;118.99
75688;HTU21D;64300;45.034;38.910;2022-12-18T15:04:33;8.65;118.99
75688;HTU21D;64300;45.034;38.910;2022-12-18T15:32:24;7.88;118.99
75688;HTU21D;64300;45.034;38.910;2022-12-18T15:34:50;7.90;118.99
75688;HTU21D;64300;45.034;38.910;2022-12-18T15:37:16;7.82;118.99
75688;HTU21D;64300;45.034;38.910;2022-12-18T15:39:41;7.68;118.99
75688;HTU21D;64300;45.034;38.910;2022-12-18T15:42:10;7.70;118.99
75688;HTU21D;64300;45.034;38.910;2022-12-18T15:44:55;7.58;118.99
75688;HTU21D;64300;45.034;38.910;2022-12-18T15:47:21;7.53;118.99
75688;HTU21D;64300;45.034;38.910;2022-12-18T15:49:47;7.37;118.99
75688;HTU21D;64300;45.034;38.910;2022-12-18T15:52:13;7.28;118.99
75688;HTU21D;64300;45.034;38.910;2022-12-18T15:54:39;7.31;118.99
75688;HTU21D;64300;45.034;38.910;2022-12-18T15:57:23;7.25;118.99
75688;HTU21D;64300;45.034;38.910;2022-12-18T15:59:53;7.32;118.99
75688;HTU21D;64300;45.034;38.910;2022-12-18T16:02:20;7.14;118.99
75688;HTU21D;64300;45.034;38.910;2022-12-18T16:04:51;7.16;118.99
75688;HTU21D;64300;45.034;38.910;2022-12-18T16:07:18;7.10;118.99
75688;HTU21D;64300;45.034;38.910;2022-12-18T16:09:47;7.02;118.99
75688;HTU21D;64300;45.034;38.910;2022-12-18T16:12:19;6.96;118.99
75688;HTU21D;64300;45.034;38.910;2022-12-18T16:14:46;6.86;118.99
75688;HTU21D;64300;45.034;38.910;2022-12-18T16:17:13;6.85;118.99
75688;HTU21D;64300;45.034;38.910;2022-12-18T16:19:42;6.79;118.99
75688;HTU21D;64300;45.034;38.910;2022-12-18T16:22:25;6.70;118.99
75688;HTU21D;64300;45.034;38.910;2022-12-18T16:24:52;6.80;118.99
75688;HTU21D;64300;45.034;38.910;2022-12-18T16:27:18;6.58;118.99
75688;HTU21D;64300;45.034;38.910;2022-12-18T16:29:45;6.63;118.99
75688;HTU21D;64300;45.034;38.910;2022-12-18T16:32:15;6.65;118.99
75688;HTU21D;64300;45.034;38.910;2022-12-18T16:34:42;6.60;118.99
75688;HTU21D;64300;45.034;38.910;2022-12-18T16:37:11;6.61;118.99
75688;HTU21D;64300;45.034;38.910;2022-12-18T16:39:38;6.50;118.99
75688;HTU21D;64300;45.034;38.910;2022-12-18T16:42:08;6.53;118.99
75688;HTU21D;64300;45.034;38.910;2022-12-18T16:45:13;6.36;118.99
75688;HTU21D;64300;45.034;38.910;2022-12-18T16:47:39;6.25;118.99
75688;HTU21D;64300;45.034;38.910;2022-12-18T16:50:06;6.25;118.99
75688;HTU21D;64300;45.034;38.910;2022-12-18T16:52:33;6.34;118.99
75688;HTU21D;64300;45.034;38.910;2022-12-18T16:54:59;6.30;118.99
75688;HTU21D;64300;45.034;38.910;2022-12-18T16:57:25;6.27;118.99
75688;HTU21D;64300;45.034;38.910;2022-12-18T16:59:51;6.15;118.99
75688;HTU21D;64300;45.034;38.910;2022-12-18T17:02:20;6.12;118.99
75688;HTU21D;64300;45.034;38.910;2022-12-18T17:04:46;6.16;118.99
75688;HTU21D;64300;45.034;38.910;2022-12-18T17:07:15;6.16;118.99
75688;HTU21D;64300;45.034;38.910;2022-12-18T17:09:41;6.10;118.99
75688;HTU21D;64300;45.034;38.910;2022-12-18T17:12:08;6.12;118.99
75688;HTU21D;64300;45.034;38.910;2022-12-18T17:14:34;6.14;118.99
75688;HTU21D;64300;45.034;38.910;2022-12-18T17:17:00;6.09;118.99
75688;HTU21D;64300;45.034;38.910;2022-12-18T17:19:27;6.08;118.99
75688;HTU21D;64300;45.034;38.910;2022-12-18T17:21:54;6.12;118.99
75688;HTU21D;64300;45.034;38.910;2022-12-18T17:24:20;6.11;118.99
75688;HTU21D;64300;45.034;38.910;2022-12-18T17:26:47;6.04;118.99
75688;HTU21D;64300;45.034;38.910;2022-12-18T17:29:14;6.05;118.99
75688;HTU21D;64300;45.034;38.910;2022-12-18T17:31:41;5.97;118.99
75688;HTU21D;64300;45.034;38.910;2022-12-18T17:34:08;5.96;118.99
75688;HTU21D;64300;45.034;38.910;2022-12-18T17:36:34;5.93;118.99
75688;HTU21D;64300;45.034;38.910;2022-12-18T17:39:00;5.92;118.99
75688;HTU21D;64300;45.034;38.910;2022-12-18T17:41:28;5.87;118.99